createdAt,value
2022-09-25T00:01:37.022Z,100.00
2022-09-25T00:04:04.787Z,100.00
2022-09-25T00:06:32.089Z,100.00
2022-09-25T00:09:00.329Z,100.00
2022-09-25T00:11:29.547Z,100.00
2022-09-25T00:13:59.242Z,100.00
2022-09-25T00:16:28.259Z,100.00
2022-09-25T00:18:56.621Z,100.00
2022-09-25T00:21:23.877Z,100.00
2022-09-25T00:23:51.209Z,100.00
2022-09-25T00:26:18.479Z,100.00
2022-09-25T00:28:45.776Z,100.00
2022-09-25T00:31:19.887Z,100.00
2022-09-25T00:33:47.166Z,100.00
2022-09-25T00:36:14.405Z,100.00
2022-09-25T00:38:41.589Z,100.00
2022-09-25T00:41:09.445Z,100.00
2022-09-25T00:43:39.464Z,100.00
2022-09-25T00:46:11.820Z,100.00
2022-09-25T00:48:48.199Z,100.00
2022-09-25T00:51:18.496Z,100.00
2022-09-25T00:53:46.159Z,100.00
2022-09-25T00:56:14.377Z,100.00
2022-09-25T00:58:42.511Z,100.00
2022-09-25T01:01:10.311Z,100.00
2022-09-25T01:03:42.017Z,100.00
2022-09-25T01:06:09.577Z,100.00
2022-09-25T01:08:39.125Z,100.00
2022-09-25T01:11:06.496Z,100.00
2022-09-25T01:13:33.935Z,100.00
2022-09-25T01:16:10.508Z,100.00
2022-09-25T01:18:54.798Z,100.00
2022-09-25T01:21:36.616Z,100.00
2022-09-25T01:24:35.061Z,100.00
2022-09-25T01:27:28.761Z,100.00
2022-09-25T01:30:03.050Z,100.00
2022-09-25T01:32:36.238Z,100.00
2022-09-25T01:35:08.728Z,100.00
2022-09-25T01:37:41.990Z,100.00
2022-09-25T01:40:17.287Z,100.00
2022-09-25T01:42:51.418Z,100.00
2022-09-25T01:45:23.694Z,100.00
2022-09-25T01:47:52.697Z,100.00
2022-09-25T01:50:26.536Z,100.00
2022-09-25T01:53:00.125Z,100.00
2022-09-25T01:55:32.429Z,100.00
2022-09-25T01:58:09.108Z,100.00
2022-09-25T02:00:40.899Z,100.00
2022-09-25T02:03:12.021Z,100.00
2022-09-25T02:05:45.190Z,100.00
2022-09-25T02:08:18.547Z,100.00
2022-09-25T02:10:51.097Z,100.00
2022-09-25T02:13:19.876Z,100.00
2022-09-25T02:15:52.625Z,100.00
2022-09-25T02:18:21.465Z,100.00
2022-09-25T02:20:55.231Z,100.00
2022-09-25T02:23:25.088Z,100.00
2022-09-25T02:26:00.161Z,100.00
2022-09-25T02:28:27.554Z,100.00
2022-09-25T02:30:59.873Z,100.00
2022-09-25T02:33:27.323Z,100.00
2022-09-25T02:35:54.693Z,100.00
2022-09-25T02:38:22.126Z,100.00
2022-09-25T02:40:54.956Z,100.00
2022-09-25T02:43:33.998Z,100.00
2022-09-25T02:46:08.406Z,100.00
2022-09-25T02:48:44.478Z,100.00
2022-09-25T02:51:20.308Z,100.00
2022-09-25T02:53:53.909Z,100.00
2022-09-25T02:56:28.742Z,100.00
2022-09-25T02:58:59.112Z,100.00
2022-09-25T03:01:31.987Z,100.00
2022-09-25T03:04:01.631Z,100.00
2022-09-25T03:06:30.745Z,100.00
2022-09-25T03:08:59.188Z,100.00
2022-09-25T03:11:27.116Z,100.00
2022-09-25T03:13:58.629Z,100.00
2022-09-25T03:16:33.727Z,100.00
2022-09-25T03:19:01.586Z,100.00
2022-09-25T03:21:28.870Z,100.00
2022-09-25T03:23:56.234Z,100.00
2022-09-25T03:26:23.811Z,100.00
2022-09-25T03:28:51.287Z,100.00
2022-09-25T03:31:18.812Z,100.00
2022-09-25T03:33:47.847Z,100.00
2022-09-25T03:36:17.167Z,100.00
2022-09-25T03:38:45.592Z,100.00
2022-09-25T03:41:14.652Z,100.00
2022-09-25T03:43:43.621Z,100.00
2022-09-25T03:46:12.982Z,100.00
2022-09-25T03:48:41.645Z,100.00
2022-09-25T03:51:11.003Z,100.00
2022-09-25T03:53:39.517Z,100.00
2022-09-25T03:56:10.912Z,100.00
2022-09-25T03:58:38.836Z,100.00
2022-09-25T04:01:06.591Z,100.00
2022-09-25T04:03:34.761Z,100.00
2022-09-25T04:06:03.558Z,100.00
2022-09-25T04:08:33.796Z,100.00
2022-09-25T04:11:01.842Z,100.00
2022-09-25T04:13:31.097Z,100.00
2022-09-25T04:15:59.545Z,100.00
2022-09-25T04:18:28.076Z,100.00
2022-09-25T04:20:55.311Z,100.00
2022-09-25T04:23:22.598Z,100.00
2022-09-25T04:25:51.299Z,100.00
2022-09-25T04:28:18.685Z,100.00
2022-09-25T04:30:45.995Z,100.00
2022-09-25T04:33:13.176Z,100.00
2022-09-25T04:35:41.983Z,100.00
2022-09-25T04:38:09.260Z,100.00
2022-09-25T04:40:37.322Z,100.00
2022-09-25T04:43:06.618Z,100.00
2022-09-25T04:45:35.622Z,100.00
2022-09-25T04:48:04.001Z,100.00
2022-09-25T04:50:32.252Z,100.00
2022-09-25T04:53:02.559Z,100.00
2022-09-25T04:55:29.818Z,100.00
2022-09-25T04:57:59.719Z,100.00
2022-09-25T05:00:30.689Z,100.00
2022-09-25T05:02:58.471Z,100.00
2022-09-25T05:05:25.796Z,100.00
2022-09-25T05:07:54.298Z,100.00
2022-09-25T05:10:21.857Z,100.00
2022-09-25T05:12:54.055Z,99.29
2022-09-25T05:15:21.261Z,99.21
2022-09-25T05:17:49.925Z,99.28
2022-09-25T05:20:17.164Z,98.95
2022-09-25T05:22:44.484Z,98.61
2022-09-25T05:25:11.711Z,98.34
2022-09-25T05:27:38.973Z,98.46
2022-09-25T05:30:07.958Z,97.90
2022-09-25T05:32:35.401Z,96.84
2022-09-25T05:35:05.033Z,96.02
2022-09-25T05:37:33.119Z,96.07
2022-09-25T05:40:00.366Z,95.86
2022-09-25T05:42:30.313Z,95.61
2022-09-25T05:44:57.533Z,94.77
2022-09-25T05:47:24.789Z,94.06
2022-09-25T05:49:52.078Z,93.45
2022-09-25T05:52:20.702Z,92.68
2022-09-25T05:54:48.034Z,92.11
2022-09-25T05:57:15.213Z,91.44
2022-09-25T05:59:42.434Z,90.90
2022-09-25T06:02:11.074Z,89.86
2022-09-25T06:04:38.340Z,89.47
2022-09-25T06:07:05.585Z,89.38
2022-09-25T06:09:34.108Z,89.34
2022-09-25T06:12:01.805Z,89.38
2022-09-25T06:14:29.007Z,89.04
2022-09-25T06:16:56.257Z,88.81
2022-09-25T06:19:23.504Z,88.81
2022-09-25T06:21:50.741Z,88.76
2022-09-25T06:24:18.029Z,88.85
2022-09-25T06:26:46.742Z,88.91
2022-09-25T06:29:14.024Z,88.91
2022-09-25T06:31:41.375Z,88.99
2022-09-25T06:34:08.746Z,88.95
2022-09-25T06:36:36.004Z,89.30
2022-09-25T06:39:03.523Z,88.70
2022-09-25T06:41:30.770Z,88.23
2022-09-25T06:43:59.409Z,88.38
2022-09-25T06:46:26.704Z,88.29
2022-09-25T06:48:55.099Z,88.66
2022-09-25T06:51:23.151Z,88.71
2022-09-25T06:53:52.355Z,88.22
2022-09-25T06:56:20.141Z,88.21
2022-09-25T06:58:47.427Z,88.08
2022-09-25T07:01:16.638Z,88.26
2022-09-25T07:03:43.865Z,87.98
2022-09-25T07:06:12.745Z,87.78
2022-09-25T07:08:40.678Z,87.52
2022-09-25T07:11:07.965Z,87.87
2022-09-25T07:13:36.103Z,87.68
2022-09-25T07:16:05.869Z,87.66
2022-09-25T07:18:35.017Z,87.78
2022-09-25T07:21:04.629Z,88.37
2022-09-25T07:23:31.989Z,88.05
2022-09-25T07:26:05.436Z,88.74
2022-09-25T07:28:32.804Z,88.58
2022-09-25T07:31:09.305Z,89.10
2022-09-25T07:33:37.945Z,89.51
2022-09-25T07:36:05.535Z,90.53
2022-09-25T07:38:33.104Z,91.65
2022-09-25T07:41:00.317Z,93.70
2022-09-25T07:43:27.514Z,96.24
2022-09-25T07:45:54.737Z,100.00
2022-09-25T07:48:22.024Z,100.00
2022-09-25T07:50:50.665Z,100.00
2022-09-25T07:53:18.200Z,100.00
2022-09-25T07:55:45.605Z,100.00
2022-09-25T07:58:13.234Z,100.00
2022-09-25T08:00:40.526Z,100.00
2022-09-25T08:03:09.527Z,100.00
2022-09-25T08:05:37.139Z,100.00
2022-09-25T08:08:05.850Z,100.00
2022-09-25T08:10:33.096Z,100.00
2022-09-25T08:13:00.373Z,100.00
2022-09-25T08:15:27.739Z,100.00
2022-09-25T08:17:55.035Z,100.00
2022-09-25T08:20:22.192Z,100.00
2022-09-25T08:22:53.396Z,100.00
2022-09-25T08:25:22.178Z,100.00
2022-09-25T08:27:49.373Z,100.00
2022-09-25T08:30:16.594Z,100.00
2022-09-25T08:32:43.838Z,100.00
2022-09-25T08:35:11.020Z,100.00
2022-09-25T08:37:40.912Z,100.00
2022-09-25T08:40:16.836Z,100.00
2022-09-25T08:42:48.465Z,100.00
2022-09-25T08:45:26.004Z,100.00
2022-09-25T08:47:55.252Z,100.00
2022-09-25T08:50:25.026Z,100.00
2022-09-25T08:52:57.262Z,100.00
2022-09-25T08:55:28.219Z,100.00
2022-09-25T08:57:56.848Z,100.00
2022-09-25T09:00:24.414Z,100.00
2022-09-25T09:02:54.191Z,100.00
2022-09-25T09:05:26.234Z,100.00
2022-09-25T09:07:57.585Z,100.00
2022-09-25T09:10:32.139Z,100.00
2022-09-25T09:13:14.235Z,100.00
2022-09-25T09:15:47.028Z,100.00
2022-09-25T09:18:21.996Z,100.00
2022-09-25T09:20:53.031Z,100.00
2022-09-25T09:23:22.650Z,100.00
2022-09-25T09:25:59.464Z,100.00
2022-09-25T09:29:01.589Z,100.00
2022-09-25T09:31:37.431Z,100.00
2022-09-25T09:34:40.883Z,100.00
2022-09-25T09:37:18.837Z,100.00
2022-09-25T09:40:01.300Z,100.00
2022-09-25T09:42:46.172Z,100.00
2022-09-25T09:45:22.679Z,100.00
2022-09-25T09:47:59.030Z,100.00
2022-09-25T09:50:38.988Z,100.00
2022-09-25T09:53:23.057Z,100.00
2022-09-25T09:55:53.962Z,100.00
2022-09-25T09:58:26.902Z,100.00
2022-09-25T10:00:55.970Z,100.00
2022-09-25T10:03:27.637Z,100.00
2022-09-25T10:05:58.778Z,100.00
2022-09-25T10:08:26.136Z,100.00
2022-09-25T10:10:54.291Z,100.00
2022-09-25T10:13:25.019Z,100.00
2022-09-25T10:15:57.989Z,100.00
2022-09-25T10:18:30.869Z,100.00
2022-09-25T10:21:04.008Z,100.00
2022-09-25T10:23:37.672Z,100.00
2022-09-25T10:26:23.629Z,100.00
2022-09-25T10:28:51.366Z,100.00
2022-09-25T10:31:20.682Z,100.00
2022-09-25T10:34:00.342Z,100.00
2022-09-25T10:36:41.524Z,100.00
2022-09-25T10:39:43.500Z,100.00
2022-09-25T10:42:37.704Z,100.00
2022-09-25T10:45:29.494Z,100.00
2022-09-25T10:47:58.542Z,100.00
2022-09-25T10:50:26.518Z,100.00
2022-09-25T10:52:55.606Z,100.00
2022-09-25T10:55:25.784Z,100.00
2022-09-25T10:57:58.518Z,100.00
2022-09-25T11:00:26.809Z,100.00
2022-09-25T11:02:57.613Z,100.00
2022-09-25T11:05:28.990Z,100.00
2022-09-25T11:07:59.353Z,100.00
2022-09-25T11:10:29.175Z,100.00
2022-09-25T11:12:58.009Z,100.00
2022-09-25T11:15:27.104Z,100.00
2022-09-25T11:17:56.527Z,100.00
2022-09-25T11:20:28.738Z,100.00
2022-09-25T11:23:22.003Z,100.00
2022-09-25T11:25:56.992Z,100.00
2022-09-25T11:28:31.745Z,100.00
2022-09-25T11:31:04.177Z,100.00
2022-09-25T11:33:43.319Z,100.00
2022-09-25T11:36:17.361Z,100.00
2022-09-25T11:38:47.465Z,100.00
2022-09-25T11:41:21.283Z,100.00
2022-09-25T11:44:05.859Z,100.00
2022-09-25T11:46:41.586Z,100.00
2022-09-25T11:49:19.942Z,100.00
2022-09-25T11:52:15.659Z,100.00
2022-09-25T11:54:54.046Z,100.00
2022-09-25T11:57:34.449Z,100.00
2022-09-25T12:00:08.073Z,100.00
2022-09-25T12:02:49.339Z,100.00
2022-09-25T12:05:50.703Z,100.00
2022-09-25T12:08:31.420Z,100.00
2022-09-25T12:11:16.025Z,100.00
2022-09-25T12:13:52.287Z,100.00
2022-09-25T12:16:23.533Z,100.00
2022-09-25T12:19:04.644Z,100.00
2022-09-25T12:21:39.707Z,100.00
2022-09-25T12:24:21.557Z,100.00
2022-09-25T12:26:56.470Z,100.00
2022-09-25T12:29:37.724Z,100.00
2022-09-25T12:32:17.007Z,100.00
2022-09-25T12:34:58.866Z,100.00
2022-09-25T12:37:33.753Z,100.00
2022-09-25T12:40:10.462Z,100.00
2022-09-25T12:42:43.078Z,100.00
2022-09-25T12:45:18.400Z,100.00
2022-09-25T12:47:57.606Z,100.00
2022-09-25T12:50:27.456Z,100.00
2022-09-25T12:52:59.246Z,100.00
2022-09-25T12:55:34.853Z,100.00
2022-09-25T12:58:11.973Z,100.00
2022-09-25T13:00:43.314Z,100.00
2022-09-25T13:03:15.477Z,100.00
2022-09-25T13:05:48.517Z,100.00
2022-09-25T13:08:22.194Z,100.00
2022-09-25T13:10:55.669Z,100.00
2022-09-25T13:13:26.780Z,100.00
2022-09-25T13:15:56.614Z,100.00
2022-09-25T13:18:25.870Z,100.00
2022-09-25T13:20:54.807Z,100.00
2022-09-25T13:23:35.421Z,100.00
2022-09-25T13:26:11.867Z,100.00
2022-09-25T13:28:47.377Z,100.00
2022-09-25T13:31:23.758Z,100.00
2022-09-25T13:33:53.588Z,100.00
2022-09-25T13:36:41.794Z,100.00
2022-09-25T13:39:20.729Z,100.00
2022-09-25T13:41:56.484Z,100.00
2022-09-25T13:44:56.832Z,100.00
2022-09-25T13:48:00.600Z,100.00
2022-09-25T13:50:41.353Z,100.00
2022-09-25T13:53:20.119Z,100.00
2022-09-25T13:56:19.939Z,100.00
2022-09-25T13:59:20.224Z,100.00
2022-09-25T14:01:49.813Z,100.00
2022-09-25T14:04:31.333Z,100.00
2022-09-25T14:07:11.158Z,100.00
2022-09-25T14:09:43.821Z,100.00
2022-09-25T14:12:20.947Z,100.00
2022-09-25T14:14:53.290Z,100.00
2022-09-25T14:17:23.701Z,100.00
2022-09-25T14:19:53.810Z,100.00
2022-09-25T14:22:29.665Z,100.00
2022-09-25T14:24:56.870Z,100.00
2022-09-25T14:27:26.548Z,100.00
2022-09-25T14:30:06.659Z,100.00
2022-09-25T14:32:56.417Z,100.00
2022-09-25T14:35:39.480Z,100.00
2022-09-25T14:38:29.857Z,100.00
2022-09-25T14:41:11.995Z,100.00
2022-09-25T14:43:52.471Z,100.00
2022-09-25T14:46:22.835Z,100.00
2022-09-25T14:48:54.729Z,100.00
2022-09-25T14:51:25.577Z,100.00
2022-09-25T14:53:57.813Z,100.00
2022-09-25T14:56:26.392Z,100.00
2022-09-25T14:58:58.023Z,100.00
2022-09-25T15:01:29.219Z,100.00
2022-09-25T15:03:59.990Z,100.00
2022-09-25T15:06:29.545Z,100.00
2022-09-25T15:08:57.377Z,100.00
2022-09-25T15:11:26.417Z,100.00
2022-09-25T15:13:53.889Z,100.00
2022-09-25T15:16:23.613Z,100.00
2022-09-25T15:18:55.743Z,100.00
2022-09-25T15:21:26.471Z,100.00
2022-09-25T15:23:57.288Z,100.00
2022-09-25T15:26:34.223Z,100.00
2022-09-25T15:29:04.263Z,100.00
2022-09-25T15:31:36.503Z,100.00
2022-09-25T15:34:12.072Z,100.00
2022-09-25T15:36:40.010Z,100.00
2022-09-25T15:39:14.389Z,100.00
2022-09-25T15:41:50.138Z,100.00
2022-09-25T15:44:20.359Z,100.00
2022-09-25T15:46:51.644Z,100.00
2022-09-25T15:49:27.333Z,100.00
2022-09-25T15:52:03.335Z,100.00
2022-09-25T15:54:37.382Z,100.00
2022-09-25T15:57:10.620Z,100.00
2022-09-25T15:59:41.415Z,100.00
2022-09-25T16:02:21.020Z,100.00
2022-09-25T16:04:52.644Z,100.00
2022-09-25T16:07:32.056Z,100.00
2022-09-25T16:10:27.394Z,100.00
2022-09-25T16:12:55.022Z,100.00
2022-09-25T16:15:47.190Z,100.00
2022-09-25T16:18:37.491Z,100.00
2022-09-25T16:21:30.716Z,100.00
2022-09-25T16:24:03.815Z,100.00
2022-09-25T16:26:37.792Z,100.00
2022-09-25T16:29:15.420Z,100.00
2022-09-25T16:31:44.840Z,100.00
2022-09-25T16:34:19.688Z,100.00
2022-09-25T16:36:48.485Z,100.00
2022-09-25T16:39:25.717Z,100.00
2022-09-25T16:41:53.339Z,100.00
2022-09-25T16:44:22.736Z,100.00
2022-09-25T16:47:06.514Z,100.00
2022-09-25T16:49:34.672Z,100.00
2022-09-25T16:52:06.946Z,100.00
2022-09-25T16:54:37.100Z,100.00
2022-09-25T16:57:04.373Z,100.00
2022-09-25T16:59:31.695Z,100.00
2022-09-25T17:02:01.809Z,100.00
2022-09-25T17:04:30.896Z,100.00
2022-09-25T17:06:58.455Z,100.00
2022-09-25T17:09:29.500Z,100.00
2022-09-25T17:12:00.627Z,100.00
2022-09-25T17:14:28.324Z,100.00
2022-09-25T17:16:56.815Z,100.00
2022-09-25T17:19:24.311Z,100.00
2022-09-25T17:21:53.486Z,100.00
2022-09-25T17:24:22.937Z,100.00
2022-09-25T17:26:51.935Z,100.00
2022-09-25T17:29:20.655Z,100.00
2022-09-25T17:31:49.460Z,100.00
2022-09-25T17:34:22.338Z,100.00
2022-09-25T17:36:50.232Z,100.00
2022-09-25T17:39:18.668Z,100.00
2022-09-25T17:41:47.364Z,100.00
2022-09-25T17:44:18.459Z,100.00
2022-09-25T17:46:45.824Z,100.00
2022-09-25T17:49:13.180Z,100.00
2022-09-25T17:51:40.831Z,100.00
2022-09-25T17:54:09.689Z,100.00
2022-09-25T17:56:36.924Z,100.00
2022-09-25T17:59:04.404Z,100.00
2022-09-25T18:01:39.167Z,100.00
2022-09-25T18:04:19.500Z,100.00
2022-09-25T18:06:47.389Z,100.00
2022-09-25T18:09:14.731Z,100.00
2022-09-25T18:11:42.074Z,100.00
2022-09-25T18:14:10.694Z,100.00
2022-09-25T18:16:41.270Z,100.00
2022-09-25T18:19:15.275Z,100.00
2022-09-25T18:21:42.778Z,100.00
2022-09-25T18:24:09.974Z,100.00
2022-09-25T18:26:37.604Z,100.00
2022-09-25T18:29:05.570Z,100.00
2022-09-25T18:31:33.599Z,100.00
2022-09-25T18:34:02.259Z,100.00
2022-09-25T18:36:29.561Z,100.00
2022-09-25T18:38:56.759Z,100.00
2022-09-25T18:41:24.156Z,100.00
2022-09-25T18:43:51.327Z,100.00
2022-09-25T18:46:18.563Z,100.00
2022-09-25T18:48:45.891Z,100.00
2022-09-25T18:51:14.900Z,100.00
2022-09-25T18:53:42.186Z,100.00
2022-09-25T18:56:09.421Z,100.00
2022-09-25T18:58:36.655Z,100.00
2022-09-25T19:01:06.296Z,100.00
2022-09-25T19:03:37.154Z,100.00
2022-09-25T19:06:07.985Z,100.00
2022-09-25T19:08:36.562Z,100.00
2022-09-25T19:11:12.108Z,100.00
2022-09-25T19:13:40.048Z,100.00
2022-09-25T19:16:07.868Z,100.00
2022-09-25T19:18:35.262Z,100.00
2022-09-25T19:21:02.584Z,100.00
2022-09-25T19:23:33.484Z,100.00
2022-09-25T19:26:04.325Z,100.00
2022-09-25T19:28:33.130Z,100.00
2022-09-25T19:31:01.880Z,100.00
2022-09-25T19:33:31.550Z,100.00
2022-09-25T19:35:59.910Z,100.00
2022-09-25T19:38:30.905Z,100.00
2022-09-25T19:40:58.472Z,100.00
2022-09-25T19:43:27.126Z,100.00
2022-09-25T19:45:56.049Z,100.00
2022-09-25T19:48:23.960Z,100.00
2022-09-25T19:50:51.225Z,100.00
2022-09-25T19:53:18.678Z,100.00
2022-09-25T19:55:50.519Z,100.00
2022-09-25T19:58:21.169Z,100.00
2022-09-25T20:00:52.007Z,100.00
2022-09-25T20:03:19.255Z,100.00
2022-09-25T20:05:46.564Z,100.00
2022-09-25T20:08:13.826Z,100.00
2022-09-25T20:10:41.452Z,100.00
2022-09-25T20:13:08.781Z,100.00
2022-09-25T20:15:36.295Z,100.00
2022-09-25T20:18:05.458Z,100.00
2022-09-25T20:20:32.624Z,100.00
2022-09-25T20:22:59.912Z,100.00
2022-09-25T20:25:27.116Z,100.00
2022-09-25T20:27:54.682Z,100.00
2022-09-25T20:30:22.770Z,100.00
2022-09-25T20:32:50.196Z,100.00
2022-09-25T20:35:19.462Z,100.00
2022-09-25T20:37:46.841Z,100.00
2022-09-25T20:40:14.274Z,100.00
2022-09-25T20:42:41.530Z,100.00
2022-09-25T20:45:09.672Z,100.00
2022-09-25T20:47:37.086Z,100.00
2022-09-25T20:50:04.925Z,100.00
2022-09-25T20:52:33.691Z,100.00
2022-09-25T20:55:00.999Z,100.00
2022-09-25T20:57:31.049Z,100.00
2022-09-25T20:59:58.329Z,100.00
2022-09-25T21:02:25.627Z,100.00
2022-09-25T21:04:52.967Z,100.00
2022-09-25T21:07:20.256Z,100.00
2022-09-25T21:09:48.995Z,100.00
2022-09-25T21:12:16.267Z,100.00
2022-09-25T21:14:43.727Z,100.00
2022-09-25T21:17:11.022Z,100.00
2022-09-25T21:19:38.403Z,100.00
2022-09-25T21:22:05.747Z,100.00
2022-09-25T21:24:33.036Z,100.00
2022-09-25T21:27:01.701Z,100.00
2022-09-25T21:29:28.960Z,100.00
2022-09-25T21:31:56.305Z,100.00
2022-09-25T21:34:23.632Z,100.00
2022-09-25T21:36:50.910Z,100.00
2022-09-25T21:39:20.853Z,100.00
2022-09-25T21:41:49.183Z,100.00
2022-09-25T21:44:19.438Z,100.00
2022-09-25T21:46:46.798Z,100.00
2022-09-25T21:49:16.496Z,100.00
2022-09-25T21:51:45.163Z,100.00
2022-09-25T21:54:13.085Z,100.00
2022-09-25T21:56:40.673Z,100.00
2022-09-25T21:59:09.290Z,100.00
2022-09-25T22:01:39.122Z,100.00
2022-09-25T22:04:08.475Z,100.00
2022-09-25T22:06:37.713Z,100.00
2022-09-25T22:09:07.121Z,100.00
2022-09-25T22:11:35.078Z,100.00
2022-09-25T22:14:02.355Z,100.00
2022-09-25T22:16:32.247Z,100.00
2022-09-25T22:19:05.976Z,100.00
2022-09-25T22:21:35.068Z,100.00
2022-09-25T22:24:02.772Z,100.00
2022-09-25T22:26:30.766Z,100.00
2022-09-25T22:28:57.933Z,100.00
2022-09-25T22:31:27.153Z,100.00
2022-09-25T22:33:56.382Z,100.00
2022-09-25T22:36:25.338Z,100.00
2022-09-25T22:38:52.927Z,100.00
2022-09-25T22:41:20.728Z,100.00
2022-09-25T22:43:50.658Z,100.00
2022-09-25T22:46:18.826Z,100.00
2022-09-25T22:48:46.248Z,100.00
2022-09-25T22:51:15.308Z,100.00
2022-09-25T22:53:44.270Z,100.00
2022-09-25T22:56:14.322Z,100.00
2022-09-25T22:58:42.402Z,100.00
2022-09-25T23:01:11.843Z,100.00
2022-09-25T23:03:39.225Z,100.00
2022-09-25T23:06:06.894Z,100.00
2022-09-25T23:08:34.204Z,100.00
2022-09-25T23:11:07.636Z,100.00
2022-09-25T23:13:36.054Z,100.00
2022-09-25T23:16:07.740Z,100.00
2022-09-25T23:18:36.450Z,100.00
2022-09-25T23:21:04.362Z,100.00
2022-09-25T23:23:32.089Z,100.00
2022-09-25T23:26:03.600Z,100.00
2022-09-25T23:28:32.478Z,100.00
2022-09-25T23:31:05.846Z,100.00
2022-09-25T23:33:33.959Z,100.00
2022-09-25T23:36:05.661Z,100.00
2022-09-25T23:38:33.641Z,100.00
2022-09-25T23:41:01.159Z,100.00
2022-09-25T23:43:29.822Z,100.00
2022-09-25T23:45:57.069Z,100.00
2022-09-25T23:48:24.489Z,100.00
2022-09-25T23:50:51.706Z,100.00
2022-09-25T23:53:19.117Z,100.00
2022-09-25T23:55:46.326Z,100.00
2022-09-25T23:58:13.533Z,100.00
